sensor_id;sensor_type;location;lat;lon;timestamp;pressure;altitude;pressure_sealevel;temperature;humidity
16461;BME280;8341;42.048;24.650;2023-07-31T00:00:07;96645.41;;;24.11;52.40
16461;BME280;8341;42.048;24.650;2023-07-31T00:02:35;96647.91;;;24.16;52.77
16461;BME280;8341;42.048;24.650;2023-07-31T00:05:04;96644.53;;;24.08;53.10
16461;BME280;8341;42.048;24.650;2023-07-31T00:07:32;96638.94;;;24.08;52.46
16461;BME280;8341;42.048;24.650;2023-07-31T00:09:59;96648.91;;;24.11;51.98
16461;BME280;8341;42.048;24.650;2023-07-31T00:12:26;96643.38;;;23.94;52.51
16461;BME280;8341;42.048;24.650;2023-07-31T00:14:53;96648.91;;;24.11;52.59
16461;BME280;8341;42.048;24.650;2023-07-31T00:17:20;96664.19;;;24.10;52.49
16461;BME280;8341;42.048;24.650;2023-07-31T00:19:47;96663.28;;;24.08;52.80
16461;BME280;8341;42.048;24.650;2023-07-31T00:22:17;96665.56;;;24.02;52.31
16461;BME280;8341;42.048;24.650;2023-07-31T00:24:44;96656.16;;;23.97;52.75
16461;BME280;8341;42.048;24.650;2023-07-31T00:27:11;96635.00;;;23.94;52.68
16461;BME280;8341;42.048;24.650;2023-07-31T00:29:38;96664.19;;;24.10;52.82
16461;BME280;8341;42.048;24.650;2023-07-31T00:32:06;96674.47;;;24.17;52.70
16461;BME280;8341;42.048;24.650;2023-07-31T00:34:33;96674.00;;;24.11;52.15
16461;BME280;8341;42.048;24.650;2023-07-31T00:37:00;96651.41;;;23.90;51.78
16461;BME280;8341;42.048;24.650;2023-07-31T00:39:30;96667.91;;;24.22;50.84
16461;BME280;8341;42.048;24.650;2023-07-31T00:41:57;96672.91;;;24.24;50.68
16461;BME280;8341;42.048;24.650;2023-07-31T00:44:24;96685.31;;;24.13;50.85
16461;BME280;8341;42.048;24.650;2023-07-31T00:46:51;96686.25;;;24.25;50.91
16461;BME280;8341;42.048;24.650;2023-07-31T00:49:18;96690.19;;;24.22;51.05
16461;BME280;8341;42.048;24.650;2023-07-31T00:51:45;96683.09;;;24.12;51.07
16461;BME280;8341;42.048;24.650;2023-07-31T18:42:36;96800.88;;;26.11;61.06
16461;BME280;8341;42.048;24.650;2023-07-31T18:45:04;96794.81;;;25.95;60.03
16461;BME280;8341;42.048;24.650;2023-07-31T18:47:31;96787.75;;;26.04;60.10
16461;BME280;8341;42.048;24.650;2023-07-31T18:49:58;96783.50;;;26.03;60.43
16461;BME280;8341;42.048;24.650;2023-07-31T18:52:25;96774.97;;;26.01;61.69
16461;BME280;8341;42.048;24.650;2023-07-31T18:54:52;96768.78;;;25.93;62.38
16461;BME280;8341;42.048;24.650;2023-07-31T18:57:19;96777.59;;;25.99;62.63
16461;BME280;8341;42.048;24.650;2023-07-31T18:59:47;96774.06;;;25.89;63.55
16461;BME280;8341;42.048;24.650;2023-07-31T19:02:14;96776.59;;;25.85;64.43
16461;BME280;8341;42.048;24.650;2023-07-31T19:04:41;96779.22;;;25.83;64.70
16461;BME280;8341;42.048;24.650;2023-07-31T19:07:08;96785.69;;;25.85;64.13
16461;BME280;8341;42.048;24.650;2023-07-31T19:09:35;96784.97;;;25.85;63.72
16461;BME280;8341;42.048;24.650;2023-07-31T19:12:03;96783.78;;;25.88;63.32
16461;BME280;8341;42.048;24.650;2023-07-31T19:14:30;96777.19;;;25.83;63.39
16461;BME280;8341;42.048;24.650;2023-07-31T19:16:59;96775.41;;;25.88;63.65
16461;BME280;8341;42.048;24.650;2023-07-31T19:19:26;96763.50;;;25.78;64.30
16461;BME280;8341;42.048;24.650;2023-07-31T19:21:53;96774.97;;;25.82;64.14
16461;BME280;8341;42.048;24.650;2023-07-31T19:24:20;96772.91;;;25.82;64.20
16461;BME280;8341;42.048;24.650;2023-07-31T19:26:48;96777.59;;;25.80;65.16
16461;BME280;8341;42.048;24.650;2023-07-31T19:29:15;96776.25;;;25.71;66.05
16461;BME280;8341;42.048;24.650;2023-07-31T19:31:42;96774.34;;;25.64;66.25
16461;BME280;8341;42.048;24.650;2023-07-31T19:34:11;96773.88;;;25.58;65.57
16461;BME280;8341;42.048;24.650;2023-07-31T19:36:38;96778.16;;;25.69;65.43
16461;BME280;8341;42.048;24.650;2023-07-31T19:39:31;96770.25;;;25.65;65.34
16461;BME280;8341;42.048;24.650;2023-07-31T19:41:59;96782.72;;;25.74;64.51
16461;BME280;8341;42.048;24.650;2023-07-31T19:44:26;96777.44;;;25.68;64.19
16461;BME280;8341;42.048;24.650;2023-07-31T19:46:53;96778.47;;;25.73;63.70
16461;BME280;8341;42.048;24.650;2023-07-31T19:49:21;96780.41;;;25.80;63.46
16461;BME280;8341;42.048;24.650;2023-07-31T19:51:49;96781.00;;;25.88;62.89
16461;BME280;8341;42.048;24.650;2023-07-31T19:54:15;96777.75;;;25.91;62.52
16461;BME280;8341;42.048;24.650;2023-07-31T19:56:43;96779.84;;;25.91;62.70
16461;BME280;8341;42.048;24.650;2023-07-31T19:59:10;96773.34;;;25.88;63.34
16461;BME280;8341;42.048;24.650;2023-07-31T20:01:37;96780.84;;;25.86;63.85
16461;BME280;8341;42.048;24.650;2023-07-31T20:04:04;96783.16;;;25.61;65.48
16461;BME280;8341;42.048;24.650;2023-07-31T20:06:32;96793.16;;;25.64;65.53
16461;BME280;8341;42.048;24.650;2023-07-31T20:08:59;96783.00;;;25.68;64.61
16461;BME280;8341;42.048;24.650;2023-07-31T20:11:29;96787.88;;;25.68;64.53
16461;BME280;8341;42.048;24.650;2023-07-31T20:13:56;96796.84;;;25.76;64.17
16461;BME280;8341;42.048;24.650;2023-07-31T20:16:23;96799.50;;;25.74;64.33
16461;BME280;8341;42.048;24.650;2023-07-31T20:18:50;96800.97;;;25.65;64.96
16461;BME280;8341;42.048;24.650;2023-07-31T20:21:17;96799.91;;;25.24;66.65
16461;BME280;8341;42.048;24.650;2023-07-31T20:23:45;96801.25;;;25.23;65.99
16461;BME280;8341;42.048;24.650;2023-07-31T20:26:12;96812.69;;;25.27;66.41
16461;BME280;8341;42.048;24.650;2023-07-31T20:28:39;96811.66;;;25.23;66.82
16461;BME280;8341;42.048;24.650;2023-07-31T20:31:06;96806.09;;;25.32;66.03
16461;BME280;8341;42.048;24.650;2023-07-31T20:33:34;96788.19;;;25.26;65.51
16461;BME280;8341;42.048;24.650;2023-07-31T20:36:01;96812.81;;;25.46;64.69
16461;BME280;8341;42.048;24.650;2023-07-31T20:38:30;96810.19;;;25.58;63.88
16461;BME280;8341;42.048;24.650;2023-07-31T20:40:58;96807.72;;;25.62;63.87
16461;BME280;8341;42.048;24.650;2023-07-31T20:43:25;96814.63;;;25.71;63.57
16461;BME280;8341;42.048;24.650;2023-07-31T20:45:52;96815.50;;;25.73;62.81
16461;BME280;8341;42.048;24.650;2023-07-31T20:48:19;96817.00;;;25.74;62.97
16461;BME280;8341;42.048;24.650;2023-07-31T20:50:46;96824.34;;;25.79;62.49
16461;BME280;8341;42.048;24.650;2023-07-31T20:53:13;96840.53;;;25.81;62.08
16461;BME280;8341;42.048;24.650;2023-07-31T20:55:41;96842.16;;;25.84;62.24
16461;BME280;8341;42.048;24.650;2023-07-31T20:58:10;96835.53;;;25.79;62.64
16461;BME280;8341;42.048;24.650;2023-07-31T21:00:37;96841.53;;;25.76;63.42
16461;BME280;8341;42.048;24.650;2023-07-31T21:03:05;96827.28;;;25.72;63.25
16461;BME280;8341;42.048;24.650;2023-07-31T21:05:32;96840.63;;;25.64;62.86
16461;BME280;8341;42.048;24.650;2023-07-31T21:07:59;96836.97;;;25.71;62.19
16461;BME280;8341;42.048;24.650;2023-07-31T21:10:26;96834.03;;;25.69;60.40
16461;BME280;8341;42.048;24.650;2023-07-31T21:12:53;96841.25;;;25.72;59.94
16461;BME280;8341;42.048;24.650;2023-07-31T21:15:21;96846.34;;;25.66;58.48
16461;BME280;8341;42.048;24.650;2023-07-31T21:17:48;96849.44;;;25.60;58.68
16461;BME280;8341;42.048;24.650;2023-07-31T21:20:15;96847.56;;;25.63;58.86
16461;BME280;8341;42.048;24.650;2023-07-31T21:22:42;96846.34;;;25.66;58.42
16461;BME280;8341;42.048;24.650;2023-07-31T21:25:09;96849.47;;;25.70;58.13
16461;BME280;8341;42.048;24.650;2023-07-31T21:27:36;96842.84;;;25.65;57.85
16461;BME280;8341;42.048;24.650;2023-07-31T21:30:04;96841.97;;;25.72;58.27
16461;BME280;8341;42.048;24.650;2023-07-31T21:32:32;96839.34;;;25.74;58.16
16461;BME280;8341;42.048;24.650;2023-07-31T21:34:59;96841.84;;;25.80;58.03
16461;BME280;8341;42.048;24.650;2023-07-31T21:37:27;96849.19;;;25.75;59.52
16461;BME280;8341;42.048;24.650;2023-07-31T21:39:54;96842.88;;;25.75;59.58
16461;BME280;8341;42.048;24.650;2023-07-31T21:42:21;96855.22;;;25.72;59.15
16461;BME280;8341;42.048;24.650;2023-07-31T21:44:48;96844.59;;;25.61;55.89
16461;BME280;8341;42.048;24.650;2023-07-31T21:47:15;96843.66;;;25.48;57.08
16461;BME280;8341;42.048;24.650;2023-07-31T21:49:44;96839.41;;;25.47;58.29
16461;BME280;8341;42.048;24.650;2023-07-31T21:52:11;96842.59;;;25.44;57.20
16461;BME280;8341;42.048;24.650;2023-07-31T21:54:38;96849.72;;;25.55;58.55
16461;BME280;8341;42.048;24.650;2023-07-31T21:57:05;96843.13;;;25.60;59.08
16461;BME280;8341;42.048;24.650;2023-07-31T21:59:32;96850.75;;;25.59;58.86
16461;BME280;8341;42.048;24.650;2023-07-31T22:02:01;96847.56;;;25.63;58.75
16461;BME280;8341;42.048;24.650;2023-07-31T22:04:28;96850.03;;;25.68;58.89
16461;BME280;8341;42.048;24.650;2023-07-31T22:06:57;96858.16;;;25.74;58.80
16461;BME280;8341;42.048;24.650;2023-07-31T22:09:23;96850.94;;;25.71;58.00
16461;BME280;8341;42.048;24.650;2023-07-31T22:11:50;96848.09;;;25.52;57.51
16461;BME280;8341;42.048;24.650;2023-07-31T22:14:18;96853.69;;;25.52;57.67
16461;BME280;8341;42.048;24.650;2023-07-31T22:16:44;96853.97;;;25.56;58.81
16461;BME280;8341;42.048;24.650;2023-07-31T22:19:11;96856.94;;;25.58;58.49
16461;BME280;8341;42.048;24.650;2023-07-31T22:21:39;96849.28;;;25.58;58.14
16461;BME280;8341;42.048;24.650;2023-07-31T22:24:07;96850.75;;;25.59;58.11
16461;BME280;8341;42.048;24.650;2023-07-31T22:26:34;96844.59;;;25.61;58.02
16461;BME280;8341;42.048;24.650;2023-07-31T22:29:01;96840.91;;;25.58;58.24
16461;BME280;8341;42.048;24.650;2023-07-31T22:31:28;96835.59;;;25.52;57.53
16461;BME280;8341;42.048;24.650;2023-07-31T22:33:55;96851.50;;;25.60;57.23
16461;BME280;8341;42.048;24.650;2023-07-31T22:36:22;96850.03;;;25.59;57.08
16461;BME280;8341;42.048;24.650;2023-07-31T22:38:49;96845.59;;;25.56;56.79
16461;BME280;8341;42.048;24.650;2023-07-31T22:41:17;96847.22;;;25.59;56.70
16461;BME280;8341;42.048;24.650;2023-07-31T22:43:44;96856.50;;;25.61;57.03
16461;BME280;8341;42.048;24.650;2023-07-31T22:46:11;96841.97;;;25.63;56.70
16461;BME280;8341;42.048;24.650;2023-07-31T22:48:38;96844.75;;;25.63;56.82
16461;BME280;8341;42.048;24.650;2023-07-31T22:51:06;96837.53;;;25.60;56.61
16461;BME280;8341;42.048;24.650;2023-07-31T22:53:33;96837.53;;;25.60;56.52
16461;BME280;8341;42.048;24.650;2023-07-31T22:56:02;96834.75;;;25.60;56.47
16461;BME280;8341;42.048;24.650;2023-07-31T22:58:31;96828.06;;;25.45;56.50
16461;BME280;8341;42.048;24.650;2023-07-31T23:01:02;96831.91;;;25.50;56.59
16461;BME280;8341;42.048;24.650;2023-07-31T23:03:30;96836.59;;;25.47;56.66
16461;BME280;8341;42.048;24.650;2023-07-31T23:05:57;96828.66;;;25.44;56.71
16461;BME280;8341;42.048;24.650;2023-07-31T23:08:24;96821.72;;;25.45;56.84
16461;BME280;8341;42.048;24.650;2023-07-31T23:10:52;96835.28;;;25.48;56.91
16461;BME280;8341;42.048;24.650;2023-07-31T23:13:19;96825.44;;;25.47;56.88
16461;BME280;8341;42.048;24.650;2023-07-31T23:15:47;96828.19;;;25.38;56.81
16461;BME280;8341;42.048;24.650;2023-07-31T23:18:15;96819.53;;;25.43;56.97
16461;BME280;8341;42.048;24.650;2023-07-31T23:20:48;96820.84;;;25.42;56.96
16461;BME280;8341;42.048;24.650;2023-07-31T23:23:15;96817.75;;;25.38;57.16
16461;BME280;8341;42.048;24.650;2023-07-31T23:25:42;96814.19;;;25.28;57.26
16461;BME280;8341;42.048;24.650;2023-07-31T23:28:10;96817.88;;;25.31;57.28
16461;BME280;8341;42.048;24.650;2023-07-31T23:30:37;96816.97;;;25.28;57.38
16461;BME280;8341;42.048;24.650;2023-07-31T23:33:05;96816.94;;;25.19;57.46
16461;BME280;8341;42.048;24.650;2023-07-31T23:35:32;96823.53;;;25.14;57.57
16461;BME280;8341;42.048;24.650;2023-07-31T23:37:59;96817.88;;;25.04;58.01
16461;BME280;8341;42.048;24.650;2023-07-31T23:40:26;96817.19;;;25.04;57.72
16461;BME280;8341;42.048;24.650;2023-07-31T23:42:53;96823.31;;;25.02;57.67
16461;BME280;8341;42.048;24.650;2023-07-31T23:45:20;96817.59;;;25.00;57.73
16461;BME280;8341;42.048;24.650;2023-07-31T23:47:48;96814.06;;;25.00;57.90
16461;BME280;8341;42.048;24.650;2023-07-31T23:50:16;96817.84;;;24.95;57.52
16461;BME280;8341;42.048;24.650;2023-07-31T23:52:44;96814.56;;;24.88;57.71
16461;BME280;8341;42.048;24.650;2023-07-31T23:55:11;96817.22;;;24.86;57.70
16461;BME280;8341;42.048;24.650;2023-07-31T23:57:39;96820.84;;;24.79;57.91
